sensor_id;sensor_type;location;lat;lon;timestamp;P1;durP1;ratioP1;P2;durP2;ratioP2
51358;SDS011;37448;51.588;7.248;2023-03-01T00:01:24;7.70;;;5.20;;
51358;SDS011;37448;51.588;7.248;2023-03-01T00:03:27;11.68;;;5.32;;
51358;SDS011;37448;51.588;7.248;2023-03-01T00:05:27;7.00;;;5.47;;
51358;SDS011;37448;51.588;7.248;2023-03-01T00:07:27;8.10;;;5.13;;
51358;SDS011;37448;51.588;7.248;2023-03-01T00:09:28;8.30;;;5.40;;
51358;SDS011;37448;51.588;7.248;2023-03-01T00:11:29;6.43;;;5.00;;
51358;SDS011;37448;51.588;7.248;2023-03-01T00:13:31;8.35;;;5.03;;
51358;SDS011;37448;51.588;7.248;2023-03-01T00:15:32;6.93;;;5.45;;
51358;SDS011;37448;51.588;7.248;2023-03-01T00:17:32;10.30;;;5.93;;
51358;SDS011;37448;51.588;7.248;2023-03-01T00:19:33;10.45;;;6.32;;
51358;SDS011;37448;51.588;7.248;2023-03-01T00:21:33;9.35;;;5.97;;
51358;SDS011;37448;51.588;7.248;2023-03-01T00:23:35;7.72;;;5.10;;
51358;SDS011;37448;51.588;7.248;2023-03-01T00:25:40;9.00;;;5.90;;
51358;SDS011;37448;51.588;7.248;2023-03-01T00:27:41;7.10;;;5.05;;
51358;SDS011;37448;51.588;7.248;2023-03-01T00:29:42;7.45;;;5.10;;
51358;SDS011;37448;51.588;7.248;2023-03-01T00:31:42;8.63;;;4.93;;
51358;SDS011;37448;51.588;7.248;2023-03-01T00:33:42;7.43;;;5.68;;
51358;SDS011;37448;51.588;7.248;2023-03-01T00:35:43;8.88;;;5.85;;
51358;SDS011;37448;51.588;7.248;2023-03-01T00:37:44;10.07;;;5.50;;
51358;SDS011;37448;51.588;7.248;2023-03-01T00:39:45;9.30;;;5.80;;
51358;SDS011;37448;51.588;7.248;2023-03-01T00:41:45;8.43;;;6.32;;
51358;SDS011;37448;51.588;7.248;2023-03-01T00:43:45;9.18;;;5.07;;
51358;SDS011;37448;51.588;7.248;2023-03-01T00:45:46;10.27;;;5.53;;
51358;SDS011;37448;51.588;7.248;2023-03-01T00:47:46;7.43;;;5.43;;
51358;SDS011;37448;51.588;7.248;2023-03-01T00:49:48;12.95;;;5.45;;
51358;SDS011;37448;51.588;7.248;2023-03-01T00:51:49;8.82;;;5.07;;
51358;SDS011;37448;51.588;7.248;2023-03-01T00:53:50;10.48;;;5.68;;
51358;SDS011;37448;51.588;7.248;2023-03-01T00:55:52;6.65;;;4.63;;
51358;SDS011;37448;51.588;7.248;2023-03-01T00:57:52;6.65;;;4.90;;
51358;SDS011;37448;51.588;7.248;2023-03-01T00:59:53;8.60;;;5.00;;
51358;SDS011;37448;51.588;7.248;2023-03-01T01:01:53;9.55;;;5.85;;
51358;SDS011;37448;51.588;7.248;2023-03-01T01:03:58;8.00;;;5.43;;
51358;SDS011;37448;51.588;7.248;2023-03-01T01:06:00;9.85;;;5.38;;
51358;SDS011;37448;51.588;7.248;2023-03-01T01:08:09;9.15;;;5.90;;
51358;SDS011;37448;51.588;7.248;2023-03-01T01:10:09;7.50;;;4.90;;
51358;SDS011;37448;51.588;7.248;2023-03-01T01:12:17;9.30;;;5.28;;
51358;SDS011;37448;51.588;7.248;2023-03-01T01:14:18;10.40;;;5.30;;
51358;SDS011;37448;51.588;7.248;2023-03-01T01:16:19;10.43;;;5.57;;
51358;SDS011;37448;51.588;7.248;2023-03-01T01:18:22;10.43;;;5.97;;
51358;SDS011;37448;51.588;7.248;2023-03-01T01:20:23;10.85;;;5.90;;
51358;SDS011;37448;51.588;7.248;2023-03-01T01:22:23;10.40;;;6.00;;
51358;SDS011;37448;51.588;7.248;2023-03-01T01:24:24;8.77;;;6.45;;
51358;SDS011;37448;51.588;7.248;2023-03-01T01:26:25;8.60;;;5.55;;
51358;SDS011;37448;51.588;7.248;2023-03-01T01:28:28;7.90;;;5.70;;
51358;SDS011;37448;51.588;7.248;2023-03-01T01:30:28;12.88;;;6.47;;
51358;SDS011;37448;51.588;7.248;2023-03-01T01:32:29;10.05;;;6.40;;
51358;SDS011;37448;51.588;7.248;2023-03-01T01:34:29;9.50;;;5.30;;
51358;SDS011;37448;51.588;7.248;2023-03-01T01:36:30;8.80;;;5.80;;
51358;SDS011;37448;51.588;7.248;2023-03-01T01:38:31;9.32;;;5.43;;
51358;SDS011;37448;51.588;7.248;2023-03-01T01:40:32;6.50;;;4.85;;
51358;SDS011;37448;51.588;7.248;2023-03-01T01:42:32;8.77;;;5.28;;
51358;SDS011;37448;51.588;7.248;2023-03-01T01:44:32;7.20;;;4.88;;
51358;SDS011;37448;51.588;7.248;2023-03-01T01:46:33;10.00;;;5.85;;
51358;SDS011;37448;51.588;7.248;2023-03-01T01:48:54;6.95;;;5.10;;
51358;SDS011;37448;51.588;7.248;2023-03-01T01:50:59;7.60;;;5.22;;
51358;SDS011;37448;51.588;7.248;2023-03-01T01:53:00;6.85;;;5.28;;
51358;SDS011;37448;51.588;7.248;2023-03-01T01:55:02;7.55;;;5.18;;
51358;SDS011;37448;51.588;7.248;2023-03-01T01:57:07;7.57;;;5.15;;
51358;SDS011;37448;51.588;7.248;2023-03-01T01:59:13;10.50;;;4.22;;
51358;SDS011;37448;51.588;7.248;2023-03-01T02:01:14;7.28;;;5.05;;
51358;SDS011;37448;51.588;7.248;2023-03-01T02:03:18;8.63;;;5.07;;
51358;SDS011;37448;51.588;7.248;2023-03-01T02:05:37;8.38;;;5.30;;
51358;SDS011;37448;51.588;7.248;2023-03-01T02:07:43;8.63;;;5.15;;
51358;SDS011;37448;51.588;7.248;2023-03-01T02:09:48;11.93;;;5.80;;
51358;SDS011;37448;51.588;7.248;2023-03-01T02:11:50;7.85;;;4.82;;
51358;SDS011;37448;51.588;7.248;2023-03-01T02:13:51;11.30;;;5.93;;
51358;SDS011;37448;51.588;7.248;2023-03-01T02:15:54;7.95;;;5.78;;
51358;SDS011;37448;51.588;7.248;2023-03-01T02:17:54;7.05;;;4.63;;
51358;SDS011;37448;51.588;7.248;2023-03-01T02:22:21;8.45;;;4.57;;
51358;SDS011;37448;51.588;7.248;2023-03-01T02:24:32;9.98;;;5.40;;
51358;SDS011;37448;51.588;7.248;2023-03-01T02:26:53;8.10;;;5.15;;
51358;SDS011;37448;51.588;7.248;2023-03-01T02:28:56;8.40;;;5.07;;
51358;SDS011;37448;51.588;7.248;2023-03-01T02:30:57;7.70;;;4.97;;
51358;SDS011;37448;51.588;7.248;2023-03-01T02:33:16;8.75;;;4.55;;
51358;SDS011;37448;51.588;7.248;2023-03-01T02:35:16;7.57;;;5.00;;
51358;SDS011;37448;51.588;7.248;2023-03-01T02:37:19;8.15;;;5.60;;
51358;SDS011;37448;51.588;7.248;2023-03-01T02:39:29;8.55;;;5.28;;
51358;SDS011;37448;51.588;7.248;2023-03-01T02:41:35;13.23;;;5.93;;
51358;SDS011;37448;51.588;7.248;2023-03-01T02:43:36;7.88;;;5.22;;
51358;SDS011;37448;51.588;7.248;2023-03-01T02:45:42;8.95;;;5.53;;
51358;SDS011;37448;51.588;7.248;2023-03-01T02:47:48;8.63;;;5.28;;
51358;SDS011;37448;51.588;7.248;2023-03-01T02:49:48;7.95;;;4.80;;
51358;SDS011;37448;51.588;7.248;2023-03-01T02:54:38;9.00;;;5.43;;
51358;SDS011;37448;51.588;7.248;2023-03-01T02:56:43;10.45;;;4.95;;
51358;SDS011;37448;51.588;7.248;2023-03-01T02:58:48;7.55;;;5.80;;
51358;SDS011;37448;51.588;7.248;2023-03-01T03:00:52;6.70;;;4.63;;
51358;SDS011;37448;51.588;7.248;2023-03-01T03:02:53;8.52;;;4.88;;
51358;SDS011;37448;51.588;7.248;2023-03-01T03:06:57;7.95;;;4.75;;
51358;SDS011;37448;51.588;7.248;2023-03-01T03:08:58;10.00;;;6.20;;
51358;SDS011;37448;51.588;7.248;2023-03-01T03:10:58;7.47;;;4.68;;
51358;SDS011;37448;51.588;7.248;2023-03-01T03:13:03;8.07;;;4.65;;
51358;SDS011;37448;51.588;7.248;2023-03-01T03:15:06;8.63;;;6.43;;
51358;SDS011;37448;51.588;7.248;2023-03-01T03:17:08;10.27;;;4.75;;
51358;SDS011;37448;51.588;7.248;2023-03-01T03:19:09;9.27;;;5.15;;
51358;SDS011;37448;51.588;7.248;2023-03-01T03:21:10;9.85;;;4.70;;
51358;SDS011;37448;51.588;7.248;2023-03-01T03:23:11;7.40;;;4.57;;
51358;SDS011;37448;51.588;7.248;2023-03-01T03:25:12;10.38;;;5.45;;
51358;SDS011;37448;51.588;7.248;2023-03-01T03:27:13;9.68;;;5.47;;
51358;SDS011;37448;51.588;7.248;2023-03-01T03:29:13;11.07;;;6.20;;
51358;SDS011;37448;51.588;7.248;2023-03-01T03:31:14;7.65;;;4.82;;
51358;SDS011;37448;51.588;7.248;2023-03-01T03:33:14;8.15;;;5.35;;
51358;SDS011;37448;51.588;7.248;2023-03-01T03:35:14;7.63;;;4.72;;
51358;SDS011;37448;51.588;7.248;2023-03-01T03:37:15;11.35;;;6.18;;
51358;SDS011;37448;51.588;7.248;2023-03-01T03:39:34;10.50;;;5.90;;
51358;SDS011;37448;51.588;7.248;2023-03-01T03:41:34;7.32;;;4.63;;
51358;SDS011;37448;51.588;7.248;2023-03-01T03:43:36;7.55;;;5.50;;
51358;SDS011;37448;51.588;7.248;2023-03-01T03:45:37;9.32;;;5.50;;
51358;SDS011;37448;51.588;7.248;2023-03-01T03:47:38;9.77;;;5.53;;
51358;SDS011;37448;51.588;7.248;2023-03-01T03:49:38;9.05;;;5.88;;
51358;SDS011;37448;51.588;7.248;2023-03-01T03:51:38;6.70;;;5.40;;
51358;SDS011;37448;51.588;7.248;2023-03-01T03:53:39;8.10;;;5.00;;
51358;SDS011;37448;51.588;7.248;2023-03-01T03:55:40;10.23;;;5.88;;
51358;SDS011;37448;51.588;7.248;2023-03-01T03:57:40;6.38;;;4.53;;
51358;SDS011;37448;51.588;7.248;2023-03-01T03:59:41;11.05;;;5.55;;
51358;SDS011;37448;51.588;7.248;2023-03-01T04:01:41;8.73;;;4.82;;
51358;SDS011;37448;51.588;7.248;2023-03-01T04:03:42;8.93;;;5.85;;
51358;SDS011;37448;51.588;7.248;2023-03-01T04:05:46;9.95;;;5.95;;
51358;SDS011;37448;51.588;7.248;2023-03-01T04:07:47;9.48;;;5.10;;
51358;SDS011;37448;51.588;7.248;2023-03-01T04:09:47;9.82;;;5.15;;
51358;SDS011;37448;51.588;7.248;2023-03-01T04:11:48;10.10;;;5.55;;
51358;SDS011;37448;51.588;7.248;2023-03-01T04:13:48;14.05;;;6.22;;
51358;SDS011;37448;51.588;7.248;2023-03-01T04:15:49;11.27;;;5.22;;
51358;SDS011;37448;51.588;7.248;2023-03-01T04:17:51;9.82;;;5.03;;
51358;SDS011;37448;51.588;7.248;2023-03-01T04:19:53;12.73;;;5.45;;
51358;SDS011;37448;51.588;7.248;2023-03-01T04:21:53;8.48;;;5.55;;
51358;SDS011;37448;51.588;7.248;2023-03-01T04:23:53;7.57;;;5.00;;
51358;SDS011;37448;51.588;7.248;2023-03-01T04:25:55;10.32;;;5.70;;
51358;SDS011;37448;51.588;7.248;2023-03-01T04:27:56;7.70;;;5.80;;
51358;SDS011;37448;51.588;7.248;2023-03-01T04:29:57;9.55;;;5.32;;
51358;SDS011;37448;51.588;7.248;2023-03-01T04:31:57;7.97;;;5.03;;
51358;SDS011;37448;51.588;7.248;2023-03-01T04:33:58;12.35;;;6.40;;
51358;SDS011;37448;51.588;7.248;2023-03-01T04:36:00;8.93;;;5.78;;
51358;SDS011;37448;51.588;7.248;2023-03-01T04:38:00;9.73;;;5.00;;
51358;SDS011;37448;51.588;7.248;2023-03-01T04:40:01;12.65;;;5.75;;
51358;SDS011;37448;51.588;7.248;2023-03-01T04:42:13;8.02;;;5.28;;
51358;SDS011;37448;51.588;7.248;2023-03-01T04:44:19;13.80;;;5.80;;
51358;SDS011;37448;51.588;7.248;2023-03-01T04:46:20;10.23;;;5.95;;
51358;SDS011;37448;51.588;7.248;2023-03-01T04:48:21;8.60;;;4.97;;
51358;SDS011;37448;51.588;7.248;2023-03-01T04:50:21;6.78;;;5.13;;
51358;SDS011;37448;51.588;7.248;2023-03-01T04:52:23;10.85;;;5.95;;
51358;SDS011;37448;51.588;7.248;2023-03-01T04:54:24;9.25;;;6.07;;
51358;SDS011;37448;51.588;7.248;2023-03-01T04:56:24;15.02;;;5.93;;
51358;SDS011;37448;51.588;7.248;2023-03-01T04:58:25;7.97;;;4.55;;
51358;SDS011;37448;51.588;7.248;2023-03-01T05:00:26;7.57;;;5.40;;
51358;SDS011;37448;51.588;7.248;2023-03-01T05:02:27;8.35;;;4.35;;
51358;SDS011;37448;51.588;7.248;2023-03-01T05:04:27;10.63;;;5.90;;
51358;SDS011;37448;51.588;7.248;2023-03-01T05:06:28;9.27;;;5.32;;
51358;SDS011;37448;51.588;7.248;2023-03-01T05:08:28;9.65;;;6.38;;
51358;SDS011;37448;51.588;7.248;2023-03-01T05:10:30;8.57;;;5.13;;
51358;SDS011;37448;51.588;7.248;2023-03-01T05:12:32;9.85;;;5.78;;
51358;SDS011;37448;51.588;7.248;2023-03-01T05:14:32;10.35;;;5.50;;
51358;SDS011;37448;51.588;7.248;2023-03-01T05:16:32;6.97;;;5.20;;
51358;SDS011;37448;51.588;7.248;2023-03-01T05:18:33;9.45;;;5.10;;
51358;SDS011;37448;51.588;7.248;2023-03-01T05:20:34;8.40;;;5.57;;
51358;SDS011;37448;51.588;7.248;2023-03-01T05:22:36;10.60;;;6.05;;
51358;SDS011;37448;51.588;7.248;2023-03-01T05:24:37;10.82;;;5.72;;
51358;SDS011;37448;51.588;7.248;2023-03-01T05:26:38;10.10;;;6.03;;
51358;SDS011;37448;51.588;7.248;2023-03-01T05:28:41;7.25;;;5.68;;
51358;SDS011;37448;51.588;7.248;2023-03-01T05:30:41;11.82;;;6.28;;
51358;SDS011;37448;51.588;7.248;2023-03-01T05:32:42;10.60;;;6.30;;
51358;SDS011;37448;51.588;7.248;2023-03-01T05:34:44;12.43;;;5.88;;
51358;SDS011;37448;51.588;7.248;2023-03-01T05:36:46;13.18;;;6.43;;
51358;SDS011;37448;51.588;7.248;2023-03-01T05:38:46;9.18;;;5.88;;
51358;SDS011;37448;51.588;7.248;2023-03-01T05:40:47;12.05;;;6.05;;
51358;SDS011;37448;51.588;7.248;2023-03-01T05:42:49;6.75;;;5.30;;
51358;SDS011;37448;51.588;7.248;2023-03-01T05:44:54;7.93;;;5.68;;
51358;SDS011;37448;51.588;7.248;2023-03-01T05:46:54;10.15;;;6.78;;
51358;SDS011;37448;51.588;7.248;2023-03-01T05:48:55;10.82;;;6.18;;
51358;SDS011;37448;51.588;7.248;2023-03-01T05:50:58;15.40;;;6.18;;
51358;SDS011;37448;51.588;7.248;2023-03-01T05:55:06;9.15;;;5.47;;
51358;SDS011;37448;51.588;7.248;2023-03-01T05:57:07;9.27;;;6.18;;
51358;SDS011;37448;51.588;7.248;2023-03-01T05:59:07;9.05;;;6.40;;
51358;SDS011;37448;51.588;7.248;2023-03-01T06:01:10;10.88;;;6.38;;
51358;SDS011;37448;51.588;7.248;2023-03-01T06:03:13;10.68;;;6.43;;
51358;SDS011;37448;51.588;7.248;2023-03-01T06:05:16;9.20;;;6.32;;
51358;SDS011;37448;51.588;7.248;2023-03-01T06:07:16;10.13;;;6.10;;
51358;SDS011;37448;51.588;7.248;2023-03-01T06:09:17;11.60;;;5.65;;
51358;SDS011;37448;51.588;7.248;2023-03-01T06:11:17;11.43;;;5.88;;
51358;SDS011;37448;51.588;7.248;2023-03-01T06:13:17;7.90;;;5.88;;
51358;SDS011;37448;51.588;7.248;2023-03-01T06:15:18;11.25;;;6.32;;
51358;SDS011;37448;51.588;7.248;2023-03-01T06:17:18;12.63;;;5.93;;
51358;SDS011;37448;51.588;7.248;2023-03-01T06:19:18;9.55;;;5.85;;
51358;SDS011;37448;51.588;7.248;2023-03-01T06:21:19;9.70;;;6.53;;
51358;SDS011;37448;51.588;7.248;2023-03-01T06:23:19;10.25;;;6.70;;
51358;SDS011;37448;51.588;7.248;2023-03-01T06:25:21;13.38;;;7.35;;
51358;SDS011;37448;51.588;7.248;2023-03-01T06:27:22;9.85;;;6.22;;
51358;SDS011;37448;51.588;7.248;2023-03-01T06:29:23;8.77;;;5.70;;
51358;SDS011;37448;51.588;7.248;2023-03-01T06:31:23;12.38;;;7.60;;
51358;SDS011;37448;51.588;7.248;2023-03-01T06:33:24;9.35;;;6.40;;
51358;SDS011;37448;51.588;7.248;2023-03-01T06:35:24;9.15;;;5.75;;
51358;SDS011;37448;51.588;7.248;2023-03-01T06:37:29;10.02;;;7.05;;
51358;SDS011;37448;51.588;7.248;2023-03-01T06:39:30;8.82;;;6.28;;
51358;SDS011;37448;51.588;7.248;2023-03-01T06:41:31;9.63;;;6.50;;
51358;SDS011;37448;51.588;7.248;2023-03-01T06:43:32;11.65;;;6.30;;
51358;SDS011;37448;51.588;7.248;2023-03-01T06:45:33;10.98;;;6.82;;
51358;SDS011;37448;51.588;7.248;2023-03-01T06:47:33;9.75;;;5.72;;
51358;SDS011;37448;51.588;7.248;2023-03-01T06:49:34;10.52;;;7.03;;
51358;SDS011;37448;51.588;7.248;2023-03-01T06:51:37;11.70;;;6.97;;
51358;SDS011;37448;51.588;7.248;2023-03-01T06:53:37;9.50;;;6.28;;
51358;SDS011;37448;51.588;7.248;2023-03-01T06:55:38;11.95;;;7.07;;
51358;SDS011;37448;51.588;7.248;2023-03-01T06:57:38;12.63;;;7.30;;
51358;SDS011;37448;51.588;7.248;2023-03-01T06:59:39;9.90;;;6.47;;
51358;SDS011;37448;51.588;7.248;2023-03-01T07:01:39;12.15;;;6.45;;
51358;SDS011;37448;51.588;7.248;2023-03-01T07:03:39;10.48;;;5.70;;
51358;SDS011;37448;51.588;7.248;2023-03-01T07:05:40;12.98;;;6.57;;
51358;SDS011;37448;51.588;7.248;2023-03-01T07:07:40;13.73;;;6.60;;
51358;SDS011;37448;51.588;7.248;2023-03-01T07:09:41;13.13;;;7.05;;
51358;SDS011;37448;51.588;7.248;2023-03-01T07:11:41;11.02;;;6.28;;
51358;SDS011;37448;51.588;7.248;2023-03-01T07:13:41;11.35;;;6.45;;
51358;SDS011;37448;51.588;7.248;2023-03-01T07:15:42;13.13;;;6.53;;
51358;SDS011;37448;51.588;7.248;2023-03-01T07:17:42;13.13;;;7.38;;
51358;SDS011;37448;51.588;7.248;2023-03-01T07:19:44;9.27;;;6.03;;
51358;SDS011;37448;51.588;7.248;2023-03-01T07:21:45;10.85;;;6.47;;
51358;SDS011;37448;51.588;7.248;2023-03-01T07:23:47;10.32;;;6.80;;
51358;SDS011;37448;51.588;7.248;2023-03-01T07:25:54;13.70;;;6.63;;
51358;SDS011;37448;51.588;7.248;2023-03-01T07:27:54;10.13;;;6.68;;
51358;SDS011;37448;51.588;7.248;2023-03-01T07:29:55;13.32;;;6.40;;
51358;SDS011;37448;51.588;7.248;2023-03-01T07:31:55;10.95;;;6.72;;
51358;SDS011;37448;51.588;7.248;2023-03-01T07:33:56;13.57;;;7.38;;
51358;SDS011;37448;51.588;7.248;2023-03-01T07:36:00;11.25;;;7.03;;
51358;SDS011;37448;51.588;7.248;2023-03-01T07:38:01;12.43;;;6.53;;
51358;SDS011;37448;51.588;7.248;2023-03-01T07:40:01;9.07;;;5.97;;
51358;SDS011;37448;51.588;7.248;2023-03-01T07:42:02;10.88;;;7.28;;
51358;SDS011;37448;51.588;7.248;2023-03-01T07:44:03;10.27;;;6.72;;
51358;SDS011;37448;51.588;7.248;2023-03-01T07:46:04;10.15;;;6.20;;
51358;SDS011;37448;51.588;7.248;2023-03-01T07:48:04;10.50;;;6.25;;
51358;SDS011;37448;51.588;7.248;2023-03-01T07:50:05;7.97;;;5.68;;
51358;SDS011;37448;51.588;7.248;2023-03-01T07:52:05;10.52;;;6.07;;
51358;SDS011;37448;51.588;7.248;2023-03-01T07:54:06;8.40;;;5.45;;
51358;SDS011;37448;51.588;7.248;2023-03-01T07:56:07;13.48;;;5.70;;
51358;SDS011;37448;51.588;7.248;2023-03-01T07:58:12;12.20;;;5.90;;
51358;SDS011;37448;51.588;7.248;2023-03-01T08:00:12;7.57;;;6.13;;
51358;SDS011;37448;51.588;7.248;2023-03-01T08:02:13;7.53;;;6.05;;
51358;SDS011;37448;51.588;7.248;2023-03-01T08:04:15;9.00;;;5.57;;
51358;SDS011;37448;51.588;7.248;2023-03-01T08:06:16;13.63;;;5.78;;
51358;SDS011;37448;51.588;7.248;2023-03-01T08:08:17;9.50;;;5.97;;
51358;SDS011;37448;51.588;7.248;2023-03-01T08:10:17;10.18;;;6.30;;
51358;SDS011;37448;51.588;7.248;2023-03-01T08:12:18;10.63;;;6.15;;
51358;SDS011;37448;51.588;7.248;2023-03-01T08:14:18;12.15;;;6.97;;
51358;SDS011;37448;51.588;7.248;2023-03-01T08:16:19;10.65;;;7.03;;
51358;SDS011;37448;51.588;7.248;2023-03-01T08:18:19;9.55;;;6.55;;
51358;SDS011;37448;51.588;7.248;2023-03-01T08:20:20;10.15;;;6.68;;
51358;SDS011;37448;51.588;7.248;2023-03-01T08:22:21;13.60;;;7.00;;
51358;SDS011;37448;51.588;7.248;2023-03-01T08:24:21;10.00;;;6.95;;
51358;SDS011;37448;51.588;7.248;2023-03-01T08:26:22;13.75;;;6.28;;
51358;SDS011;37448;51.588;7.248;2023-03-01T08:28:23;10.68;;;5.82;;
51358;SDS011;37448;51.588;7.248;2023-03-01T08:30:23;8.32;;;5.85;;
51358;SDS011;37448;51.588;7.248;2023-03-01T08:32:24;9.65;;;6.70;;
51358;SDS011;37448;51.588;7.248;2023-03-01T08:34:24;11.65;;;7.32;;
51358;SDS011;37448;51.588;7.248;2023-03-01T08:36:28;10.43;;;6.82;;
51358;SDS011;37448;51.588;7.248;2023-03-01T08:38:31;13.43;;;7.10;;
51358;SDS011;37448;51.588;7.248;2023-03-01T08:40:31;12.25;;;6.88;;
51358;SDS011;37448;51.588;7.248;2023-03-01T08:42:32;12.45;;;7.30;;
51358;SDS011;37448;51.588;7.248;2023-03-01T08:44:33;9.80;;;6.72;;
51358;SDS011;37448;51.588;7.248;2023-03-01T08:46:36;13.10;;;7.43;;
51358;SDS011;37448;51.588;7.248;2023-03-01T08:50:38;13.55;;;7.05;;
51358;SDS011;37448;51.588;7.248;2023-03-01T08:52:39;9.25;;;6.53;;
51358;SDS011;37448;51.588;7.248;2023-03-01T08:54:39;11.23;;;6.75;;
51358;SDS011;37448;51.588;7.248;2023-03-01T08:56:40;11.65;;;7.90;;
51358;SDS011;37448;51.588;7.248;2023-03-01T08:58:43;12.55;;;7.95;;
51358;SDS011;37448;51.588;7.248;2023-03-01T09:00:45;8.65;;;6.13;;
51358;SDS011;37448;51.588;7.248;2023-03-01T09:02:45;8.98;;;6.13;;
51358;SDS011;37448;51.588;7.248;2023-03-01T09:04:45;8.45;;;6.50;;
51358;SDS011;37448;51.588;7.248;2023-03-01T09:06:46;8.85;;;5.82;;
51358;SDS011;37448;51.588;7.248;2023-03-01T09:08:47;10.43;;;5.53;;
51358;SDS011;37448;51.588;7.248;2023-03-01T09:10:49;9.55;;;5.93;;
51358;SDS011;37448;51.588;7.248;2023-03-01T09:12:49;8.75;;;5.95;;
51358;SDS011;37448;51.588;7.248;2023-03-01T09:14:51;9.45;;;5.32;;
51358;SDS011;37448;51.588;7.248;2023-03-01T09:16:51;9.02;;;5.38;;
51358;SDS011;37448;51.588;7.248;2023-03-01T09:18:52;8.20;;;5.05;;
51358;SDS011;37448;51.588;7.248;2023-03-01T09:21:00;10.77;;;6.22;;
51358;SDS011;37448;51.588;7.248;2023-03-01T09:23:02;8.93;;;5.22;;
51358;SDS011;37448;51.588;7.248;2023-03-01T09:25:02;8.48;;;5.20;;
51358;SDS011;37448;51.588;7.248;2023-03-01T09:27:03;7.88;;;4.85;;
51358;SDS011;37448;51.588;7.248;2023-03-01T09:29:08;10.75;;;5.63;;
51358;SDS011;37448;51.588;7.248;2023-03-01T09:31:09;9.45;;;4.90;;
51358;SDS011;37448;51.588;7.248;2023-03-01T09:33:12;8.15;;;5.35;;
51358;SDS011;37448;51.588;7.248;2023-03-01T09:35:14;7.05;;;5.07;;
51358;SDS011;37448;51.588;7.248;2023-03-01T09:37:15;8.43;;;4.90;;
51358;SDS011;37448;51.588;7.248;2023-03-01T09:39:15;8.20;;;4.93;;
51358;SDS011;37448;51.588;7.248;2023-03-01T09:45:48;10.25;;;5.70;;
51358;SDS011;37448;51.588;7.248;2023-03-01T09:47:52;9.07;;;4.95;;
51358;SDS011;37448;51.588;7.248;2023-03-01T09:50:05;7.20;;;4.85;;
51358;SDS011;37448;51.588;7.248;2023-03-01T09:52:21;6.97;;;4.80;;
51358;SDS011;37448;51.588;7.248;2023-03-01T09:54:29;7.65;;;4.82;;
51358;SDS011;37448;51.588;7.248;2023-03-01T09:56:30;6.85;;;4.97;;
51358;SDS011;37448;51.588;7.248;2023-03-01T10:00:52;7.65;;;4.47;;
51358;SDS011;37448;51.588;7.248;2023-03-01T10:02:57;7.65;;;5.35;;
51358;SDS011;37448;51.588;7.248;2023-03-01T10:05:13;8.07;;;4.88;;
51358;SDS011;37448;51.588;7.248;2023-03-01T10:07:32;7.53;;;5.13;;
51358;SDS011;37448;51.588;7.248;2023-03-01T10:09:37;9.85;;;5.22;;
51358;SDS011;37448;51.588;7.248;2023-03-01T10:11:41;7.25;;;4.90;;
51358;SDS011;37448;51.588;7.248;2023-03-01T10:13:50;6.80;;;5.00;;
51358;SDS011;37448;51.588;7.248;2023-03-01T10:16:02;11.60;;;4.80;;
51358;SDS011;37448;51.588;7.248;2023-03-01T10:18:12;8.40;;;5.20;;
51358;SDS011;37448;51.588;7.248;2023-03-01T10:20:21;9.68;;;5.10;;
51358;SDS011;37448;51.588;7.248;2023-03-01T10:22:28;10.05;;;4.95;;
51358;SDS011;37448;51.588;7.248;2023-03-01T10:24:30;10.30;;;5.03;;
51358;SDS011;37448;51.588;7.248;2023-03-01T10:31:00;7.53;;;4.57;;
51358;SDS011;37448;51.588;7.248;2023-03-01T10:33:01;9.43;;;4.15;;
51358;SDS011;37448;51.588;7.248;2023-03-01T10:35:15;7.25;;;4.65;;
51358;SDS011;37448;51.588;7.248;2023-03-01T10:37:17;13.25;;;5.68;;
51358;SDS011;37448;51.588;7.248;2023-03-01T10:39:22;7.07;;;4.22;;
51358;SDS011;37448;51.588;7.248;2023-03-01T10:41:25;7.70;;;5.72;;
51358;SDS011;37448;51.588;7.248;2023-03-01T10:43:29;9.35;;;4.80;;
51358;SDS011;37448;51.588;7.248;2023-03-01T10:45:40;10.07;;;6.18;;
51358;SDS011;37448;51.588;7.248;2023-03-01T10:47:42;6.90;;;4.78;;
51358;SDS011;37448;51.588;7.248;2023-03-01T10:49:53;4.72;;;3.53;;
51358;SDS011;37448;51.588;7.248;2023-03-01T10:51:56;13.23;;;4.43;;
51358;SDS011;37448;51.588;7.248;2023-03-01T10:56:23;7.38;;;4.30;;
51358;SDS011;37448;51.588;7.248;2023-03-01T10:58:25;7.40;;;3.85;;
51358;SDS011;37448;51.588;7.248;2023-03-01T11:00:26;5.20;;;3.45;;
51358;SDS011;37448;51.588;7.248;2023-03-01T11:02:30;6.65;;;4.03;;
51358;SDS011;37448;51.588;7.248;2023-03-01T11:04:30;6.50;;;4.65;;
51358;SDS011;37448;51.588;7.248;2023-03-01T11:06:31;6.60;;;3.78;;
51358;SDS011;37448;51.588;7.248;2023-03-01T11:08:34;6.32;;;3.92;;
51358;SDS011;37448;51.588;7.248;2023-03-01T11:12:37;7.60;;;4.13;;
51358;SDS011;37448;51.588;7.248;2023-03-01T11:14:37;7.50;;;4.68;;
51358;SDS011;37448;51.588;7.248;2023-03-01T11:16:41;6.40;;;3.72;;
51358;SDS011;37448;51.588;7.248;2023-03-01T11:18:44;5.38;;;4.10;;
51358;SDS011;37448;51.588;7.248;2023-03-01T11:20:56;10.50;;;4.70;;
51358;SDS011;37448;51.588;7.248;2023-03-01T11:23:08;7.97;;;4.22;;
51358;SDS011;37448;51.588;7.248;2023-03-01T11:25:13;9.93;;;4.45;;
51358;SDS011;37448;51.588;7.248;2023-03-01T11:29:29;5.03;;;3.45;;
51358;SDS011;37448;51.588;7.248;2023-03-01T11:31:34;7.07;;;3.92;;
51358;SDS011;37448;51.588;7.248;2023-03-01T11:33:46;6.80;;;4.53;;
51358;SDS011;37448;51.588;7.248;2023-03-01T11:38:13;7.68;;;4.90;;
51358;SDS011;37448;51.588;7.248;2023-03-01T11:40:25;6.22;;;4.10;;
51358;SDS011;37448;51.588;7.248;2023-03-01T11:42:34;6.60;;;4.18;;
51358;SDS011;37448;51.588;7.248;2023-03-01T11:44:47;6.78;;;3.78;;
51358;SDS011;37448;51.588;7.248;2023-03-01T11:51:04;6.70;;;4.15;;
51358;SDS011;37448;51.588;7.248;2023-03-01T11:53:17;6.03;;;3.38;;
51358;SDS011;37448;51.588;7.248;2023-03-01T11:58:05;6.10;;;3.60;;
51358;SDS011;37448;51.588;7.248;2023-03-01T12:00:14;7.25;;;3.95;;
51358;SDS011;37448;51.588;7.248;2023-03-01T12:07:12;9.40;;;4.18;;
51358;SDS011;37448;51.588;7.248;2023-03-01T12:09:31;6.85;;;3.97;;
51358;SDS011;37448;51.588;7.248;2023-03-01T12:37:14;7.13;;;4.13;;
51358;SDS011;37448;51.588;7.248;2023-03-01T12:40:37;6.00;;;3.53;;
51358;SDS011;37448;51.588;7.248;2023-03-01T12:42:32;6.82;;;3.90;;
51358;SDS011;37448;51.588;7.248;2023-03-01T12:49:26;5.20;;;3.38;;
51358;SDS011;37448;51.588;7.248;2023-03-01T12:51:31;10.85;;;4.80;;
51358;SDS011;37448;51.588;7.248;2023-03-01T12:53:35;7.75;;;4.40;;
51358;SDS011;37448;51.588;7.248;2023-03-01T12:55:39;7.57;;;3.53;;
51358;SDS011;37448;51.588;7.248;2023-03-01T12:57:45;6.78;;;3.75;;
51358;SDS011;37448;51.588;7.248;2023-03-01T13:00:11;8.25;;;5.03;;
51358;SDS011;37448;51.588;7.248;2023-03-01T13:02:30;7.50;;;4.68;;
51358;SDS011;37448;51.588;7.248;2023-03-01T13:06:58;7.47;;;4.90;;
51358;SDS011;37448;51.588;7.248;2023-03-01T13:11:28;7.40;;;4.22;;
51358;SDS011;37448;51.588;7.248;2023-03-01T13:13:29;9.27;;;4.97;;
51358;SDS011;37448;51.588;7.248;2023-03-01T13:15:33;6.97;;;3.80;;
51358;SDS011;37448;51.588;7.248;2023-03-01T13:17:40;8.82;;;4.82;;
51358;SDS011;37448;51.588;7.248;2023-03-01T13:19:46;8.90;;;4.10;;
51358;SDS011;37448;51.588;7.248;2023-03-01T13:21:57;7.95;;;4.57;;
51358;SDS011;37448;51.588;7.248;2023-03-01T13:23:58;10.10;;;4.47;;
51358;SDS011;37448;51.588;7.248;2023-03-01T13:26:12;6.60;;;4.88;;
51358;SDS011;37448;51.588;7.248;2023-03-01T13:32:35;7.38;;;4.05;;
51358;SDS011;37448;51.588;7.248;2023-03-01T13:34:41;8.35;;;4.68;;
51358;SDS011;37448;51.588;7.248;2023-03-01T13:36:47;7.38;;;4.55;;
51358;SDS011;37448;51.588;7.248;2023-03-01T13:40:58;9.35;;;4.97;;
51358;SDS011;37448;51.588;7.248;2023-03-01T13:43:00;9.10;;;4.95;;